Wednesday, September 19, 2018, 2:40 PM EDT
Back to Local

KWAL, Wallops Flight Fac Airport

Location: Wallops Island, VA, United States Lat: 37.933
Local Time: 2:40 PM EDT (18:40 GMT) Lon: -75.467
Time Zone: US/Eastern Elev: 39 ft

Show me the last for .
Show Decoded

2018-09-19 13:54 METAR KWAL 191754Z AUTO RMK AO2 SLPNO 6//// 10300 20222 PWINO TSNO PNO $ =
2018-09-19 12:54 METAR KWAL 191654Z 33010KT SCT034 29/22 A2990 RMK AO2 SLP122 T02940217 $ =
2018-09-19 11:54 METAR KWAL 191554Z 33008KT BKN030 29/22 A2990 RMK AO2 SLP122 T02890217 $ =
2018-09-19 10:54 METAR KWAL 191454Z 35010KT FEW250 27/21 A2990 RMK AO2 SLP120 T02720211 53013 $ =
2018-09-19 09:54 METAR KWAL 191354Z 35008KT 310V010 10SM FEW250 26/22 A2988 RMK AO2 SLP115
                 T02610217 =
2018-09-19 08:54 METAR KWAL 191254Z 33006KT 10SM FEW250 24/22 A2986 RMK AO2 SLP109 T02440217 =
2018-09-19 07:54 METAR KWAL 191154Z 32007KT 10SM FEW250 22/21 A2986 RMK AO2 SLP107 70013
                 T02220211 10228 20211 53012 =
2018-09-19 06:54 METAR KWAL 191054Z AUTO 33007KT 10SM CLR 21/21 A2984 RMK AO2 SLP100 T02110211
                 TSNO =
2018-09-19 05:54 METAR KWAL 190954Z AUTO 31006KT 10SM CLR 21/21 A2982 RMK AO2 SLP096 T02110211
                 TSNO =
2018-09-19 04:54 METAR KWAL 190854Z AUTO 31007KT 10SM CLR 22/21 A2982 RMK AO2 SLP095 T02170211
                 51008 TSNO =
2018-09-19 03:54 METAR KWAL 190754Z AUTO 31006KT 10SM CLR 22/21 A2982 RMK AO2 SLP094 T02170211
                 TSNO =
2018-09-19 02:54 METAR KWAL 190654Z AUTO 32006KT 10SM CLR 22/22 A2981 RMK AO2 SLP092 T02220217
                 TSNO =
2018-09-19 01:54 METAR KWAL 190554Z AUTO 33007KT 10SM CLR 23/22 A2980 RMK AO2 SLP087 60011
                 T02280217 10250 20228 50000 TSNO =
2018-09-19 00:54 METAR KWAL 190454Z AUTO 33007KT 10SM FEW070 FEW110 23/22 A2980 RMK AO2 SLP087
                 T02330222 403110233 TSNO =
2018-09-18 23:54 METAR KWAL 190354Z AUTO 33009KT 10SM SCT055 23/22 A2980 RMK AO2 SLP087 T02330222
                 TSNO =
2018-09-18 22:54 METAR KWAL 190254Z AUTO 32006KT 10SM OVC070 24/23 A2980 RMK AO2 RAE06 SLP087
                 P0000 60011 T02390233 51012 TSNO =
2018-09-18 21:54 METAR KWAL 190154Z AUTO 33008KT 8SM -RA FEW060 BKN085 BKN110 24/23 A2979 RMK AO2
                 SLP083 P0005 T02390233 TSNO =
2018-09-18 20:54 METAR KWAL 190054Z AUTO 34008G15KT 8SM RA FEW009 SCT075 OVC090 24/23 A2978 RMK
                 AO2 SLP081 P0006 T02390233 TSNO =
2018-09-18 20:33 METAR KWAL 190033Z AUTO 35009G17KT 10SM -RA SCT013 BKN050 OVC070 24/23 A2977 RMK
                 AO2 P0004 T02440233 TSNO =
2018-09-18 20:17 METAR KWAL 190017Z AUTO 34009KT 4SM -RA BR FEW007 BKN013 OVC055 24/24 A2977 RMK
                 AO2 P0004 T02440239 TSNO =
2018-09-18 19:54 METAR KWAL 182354Z AUTO 31006KT 9SM -RA SCT008 BKN065 OVC080 25/24 A2976 RMK AO2
                 RAB10 SLP075 P0002 60002 T02500244 10311 20250 51010 TSNO =
2018-09-18 19:51 METAR KWAL 182351Z AUTO 30005KT 9SM -RA SCT008 OVC080 25/24 A2976 RMK AO2 RAB10
                 P0002 TSNO =
2018-09-18 19:25 METAR KWAL 182325Z AUTO 32008KT 10SM -RA SCT016 SCT022 OVC075 26/24 A2976 RMK
                 AO2 RAB10 P0000 T02560244 TSNO =
2018-09-18 19:17 METAR KWAL 182317Z AUTO 31008KT 10SM -RA SCT016 BKN024 OVC090 26/24 A2976 RMK
                 AO2 RAB10 P0000 T02610244 TSNO =
2018-09-18 18:54 METAR KWAL 182254Z AUTO 28007KT 10SM BKN075 OVC090 27/24 A2975 RMK AO2 SLP072
                 T02670239 TSNO =
2018-09-18 17:54 METAR KWAL 182154Z AUTO 22006KT 10SM BKN070 27/23 A2973 RMK AO2 SLP065 T02720228
                 TSNO =
2018-09-18 16:54 METAR KWAL 182054Z AUTO 24011KT 10SM FEW038 FEW047 BKN070 29/23 A2973 RMK AO2
                 SLP066 T02890228 55007 TSNO =
2018-09-18 15:54 METAR KWAL 181954Z AUTO 24009KT 10SM SCT034 BKN070 29/23 A2973 RMK AO2 SLP065
                 T02940233 TSNO =
2018-09-18 14:54 METAR KWAL 181854Z AUTO 24009KT 10SM OVC070 29/23 A2974 RMK AO2 SLP068 T02940233
                 TSNO =

Support USWX by starting your Amazon purchase here.